sensor_id;sensor_type;location;lat;lon;timestamp;temperature;humidity
75517;DHT22;64097;52.548;13.406;2023-04-01T00:02:19;16.10;68.20
75517;DHT22;64097;52.548;13.406;2023-04-01T00:04:45;16.10;68.30
75517;DHT22;64097;52.548;13.406;2023-04-01T00:07:11;16.10;67.90
75517;DHT22;64097;52.548;13.406;2023-04-01T00:09:37;16.10;67.80
75517;DHT22;64097;52.548;13.406;2023-04-01T00:12:03;16.10;67.80
75517;DHT22;64097;52.548;13.406;2023-04-01T00:14:28;16.10;67.50
75517;DHT22;64097;52.548;13.406;2023-04-01T00:16:55;16.00;67.20
75517;DHT22;64097;52.548;13.406;2023-04-01T00:19:21;16.00;67.00
75517;DHT22;64097;52.548;13.406;2023-04-01T00:21:46;16.00;67.40
75517;DHT22;64097;52.548;13.406;2023-04-01T00:24:13;16.00;67.00
75517;DHT22;64097;52.548;13.406;2023-04-01T00:26:39;15.90;66.80
75517;DHT22;64097;52.548;13.406;2023-04-01T00:29:07;15.90;66.80
75517;DHT22;64097;52.548;13.406;2023-04-01T00:31:33;15.80;67.10
75517;DHT22;64097;52.548;13.406;2023-04-01T00:33:59;15.80;67.40
75517;DHT22;64097;52.548;13.406;2023-04-01T00:36:25;15.90;67.60
75517;DHT22;64097;52.548;13.406;2023-04-01T00:38:51;15.90;67.60
75517;DHT22;64097;52.548;13.406;2023-04-01T00:41:18;15.90;67.50
75517;DHT22;64097;52.548;13.406;2023-04-01T00:43:47;15.90;67.40
75517;DHT22;64097;52.548;13.406;2023-04-01T00:46:13;15.90;67.20
75517;DHT22;64097;52.548;13.406;2023-04-01T00:48:45;15.90;67.10
75517;DHT22;64097;52.548;13.406;2023-04-01T00:51:24;15.90;67.10
75517;DHT22;64097;52.548;13.406;2023-04-01T00:53:53;15.90;67.10
75517;DHT22;64097;52.548;13.406;2023-04-01T00:56:22;15.80;67.00
75517;DHT22;64097;52.548;13.406;2023-04-01T00:59:03;15.80;67.20
75517;DHT22;64097;52.548;13.406;2023-04-01T01:01:30;15.80;67.30
75517;DHT22;64097;52.548;13.406;2023-04-01T01:03:56;15.80;67.40
75517;DHT22;64097;52.548;13.406;2023-04-01T01:12:03;15.90;67.70
75517;DHT22;64097;52.548;13.406;2023-04-01T01:14:34;15.90;67.70
75517;DHT22;64097;52.548;13.406;2023-04-01T01:32:07;16.00;68.10
75517;DHT22;64097;52.548;13.406;2023-04-01T01:37:23;15.90;67.80
75517;DHT22;64097;52.548;13.406;2023-04-01T01:39:57;15.90;68.00
75517;DHT22;64097;52.548;13.406;2023-04-01T01:42:25;15.90;68.20
75517;DHT22;64097;52.548;13.406;2023-04-01T01:44:52;15.90;68.20
75517;DHT22;64097;52.548;13.406;2023-04-01T01:47:20;15.90;68.30
75517;DHT22;64097;52.548;13.406;2023-04-01T01:49:47;16.00;68.40
75517;DHT22;64097;52.548;13.406;2023-04-01T01:52:13;15.90;68.40
75517;DHT22;64097;52.548;13.406;2023-04-01T01:54:53;15.90;68.30
75517;DHT22;64097;52.548;13.406;2023-04-01T01:57:24;16.00;68.40
75517;DHT22;64097;52.548;13.406;2023-04-01T01:59:54;15.90;68.30
75517;DHT22;64097;52.548;13.406;2023-04-01T02:02:22;16.00;68.50
75517;DHT22;64097;52.548;13.406;2023-04-01T02:04:49;16.00;68.40
75517;DHT22;64097;52.548;13.406;2023-04-01T02:07:23;16.00;68.50
75517;DHT22;64097;52.548;13.406;2023-04-01T02:09:50;16.00;68.50
75517;DHT22;64097;52.548;13.406;2023-04-01T02:12:17;16.00;68.40
75517;DHT22;64097;52.548;13.406;2023-04-01T02:14:46;16.00;68.30
75517;DHT22;64097;52.548;13.406;2023-04-01T02:17:22;16.00;68.40
75517;DHT22;64097;52.548;13.406;2023-04-01T02:19:52;16.00;68.30
75517;DHT22;64097;52.548;13.406;2023-04-01T02:22:28;16.00;68.30
75517;DHT22;64097;52.548;13.406;2023-04-01T02:24:59;16.00;68.50
75517;DHT22;64097;52.548;13.406;2023-04-01T02:27:26;16.00;68.70
75517;DHT22;64097;52.548;13.406;2023-04-01T02:29:52;16.00;68.80
75517;DHT22;64097;52.548;13.406;2023-04-01T02:32:19;16.00;68.90
75517;DHT22;64097;52.548;13.406;2023-04-01T02:34:47;16.00;69.30
75517;DHT22;64097;52.548;13.406;2023-04-01T02:37:14;16.00;68.80
75517;DHT22;64097;52.548;13.406;2023-04-01T02:39:40;16.00;68.90
75517;DHT22;64097;52.548;13.406;2023-04-01T02:42:08;15.90;69.00
75517;DHT22;64097;52.548;13.406;2023-04-01T02:44:33;15.90;69.10
75517;DHT22;64097;52.548;13.406;2023-04-01T02:46:59;15.90;68.90
75517;DHT22;64097;52.548;13.406;2023-04-01T02:49:25;15.90;68.90
75517;DHT22;64097;52.548;13.406;2023-04-01T02:51:51;15.90;69.10
75517;DHT22;64097;52.548;13.406;2023-04-01T02:54:17;15.90;68.80
75517;DHT22;64097;52.548;13.406;2023-04-01T02:56:43;15.90;69.20
75517;DHT22;64097;52.548;13.406;2023-04-01T02:59:09;15.90;69.30
75517;DHT22;64097;52.548;13.406;2023-04-01T03:01:35;15.90;69.10
75517;DHT22;64097;52.548;13.406;2023-04-01T03:04:00;15.90;69.10
75517;DHT22;64097;52.548;13.406;2023-04-01T03:06:26;15.90;69.30
75517;DHT22;64097;52.548;13.406;2023-04-01T03:08:52;15.90;69.40
75517;DHT22;64097;52.548;13.406;2023-04-01T03:11:17;15.90;69.40
75517;DHT22;64097;52.548;13.406;2023-04-01T03:13:43;15.90;69.40
75517;DHT22;64097;52.548;13.406;2023-04-01T03:16:09;15.90;69.30
75517;DHT22;64097;52.548;13.406;2023-04-01T03:18:35;15.90;69.30
75517;DHT22;64097;52.548;13.406;2023-04-01T03:21:21;15.90;69.30
75517;DHT22;64097;52.548;13.406;2023-04-01T03:23:47;15.90;69.10
75517;DHT22;64097;52.548;13.406;2023-04-01T03:26:13;15.90;69.00
75517;DHT22;64097;52.548;13.406;2023-04-01T03:28:38;15.90;69.00
75517;DHT22;64097;52.548;13.406;2023-04-01T03:31:05;15.90;68.80
75517;DHT22;64097;52.548;13.406;2023-04-01T03:33:31;15.90;68.90
75517;DHT22;64097;52.548;13.406;2023-04-01T03:35:57;16.00;69.00
75517;DHT22;64097;52.548;13.406;2023-04-01T03:38:23;16.00;68.90
75517;DHT22;64097;52.548;13.406;2023-04-01T03:40:50;16.00;68.90
75517;DHT22;64097;52.548;13.406;2023-04-01T03:43:16;16.00;68.80
75517;DHT22;64097;52.548;13.406;2023-04-01T03:45:49;16.00;68.70
75517;DHT22;64097;52.548;13.406;2023-04-01T03:48:15;16.00;68.50
75517;DHT22;64097;52.548;13.406;2023-04-01T03:50:42;15.90;68.50
75517;DHT22;64097;52.548;13.406;2023-04-01T03:53:08;15.90;68.40
75517;DHT22;64097;52.548;13.406;2023-04-01T03:55:35;15.90;68.50
75517;DHT22;64097;52.548;13.406;2023-04-01T03:58:02;15.90;68.70
75517;DHT22;64097;52.548;13.406;2023-04-01T04:00:29;15.90;68.60
75517;DHT22;64097;52.548;13.406;2023-04-01T04:02:55;15.90;68.60
75517;DHT22;64097;52.548;13.406;2023-04-01T04:05:22;16.00;68.30
75517;DHT22;64097;52.548;13.406;2023-04-01T04:07:49;16.00;68.30
75517;DHT22;64097;52.548;13.406;2023-04-01T04:10:14;16.00;68.40
75517;DHT22;64097;52.548;13.406;2023-04-01T04:12:40;15.90;68.00
75517;DHT22;64097;52.548;13.406;2023-04-01T04:15:07;16.00;68.20
75517;DHT22;64097;52.548;13.406;2023-04-01T04:17:32;16.00;68.00
75517;DHT22;64097;52.548;13.406;2023-04-01T04:19:58;15.90;67.80
75517;DHT22;64097;52.548;13.406;2023-04-01T04:22:24;15.90;68.00
75517;DHT22;64097;52.548;13.406;2023-04-01T04:24:49;15.90;68.00
75517;DHT22;64097;52.548;13.406;2023-04-01T04:27:15;15.90;68.00
75517;DHT22;64097;52.548;13.406;2023-04-01T04:29:42;15.90;67.60
75517;DHT22;64097;52.548;13.406;2023-04-01T04:32:08;15.90;67.90
75517;DHT22;64097;52.548;13.406;2023-04-01T04:34:34;15.90;68.00
75517;DHT22;64097;52.548;13.406;2023-04-01T04:37:00;15.90;68.00
75517;DHT22;64097;52.548;13.406;2023-04-01T04:39:25;15.80;67.90
75517;DHT22;64097;52.548;13.406;2023-04-01T04:41:51;15.80;67.90
75517;DHT22;64097;52.548;13.406;2023-04-01T04:44:17;15.80;68.10
75517;DHT22;64097;52.548;13.406;2023-04-01T04:46:43;15.70;68.60
75517;DHT22;64097;52.548;13.406;2023-04-01T04:49:09;15.70;68.50
75517;DHT22;64097;52.548;13.406;2023-04-01T04:51:35;15.70;68.50
75517;DHT22;64097;52.548;13.406;2023-04-01T04:54:05;15.70;68.50
75517;DHT22;64097;52.548;13.406;2023-04-01T04:56:31;15.60;68.60
75517;DHT22;64097;52.548;13.406;2023-04-01T04:58:58;15.60;68.80
75517;DHT22;64097;52.548;13.406;2023-04-01T05:01:24;15.70;68.90
75517;DHT22;64097;52.548;13.406;2023-04-01T05:03:49;15.60;68.80
75517;DHT22;64097;52.548;13.406;2023-04-01T05:06:16;15.70;69.00
75517;DHT22;64097;52.548;13.406;2023-04-01T05:08:43;15.70;69.20
75517;DHT22;64097;52.548;13.406;2023-04-01T05:11:14;15.70;69.00
75517;DHT22;64097;52.548;13.406;2023-04-01T05:13:41;15.70;69.00
75517;DHT22;64097;52.548;13.406;2023-04-01T05:16:16;15.70;69.30
75517;DHT22;64097;52.548;13.406;2023-04-01T05:18:42;15.80;69.40
75517;DHT22;64097;52.548;13.406;2023-04-01T05:21:09;15.70;69.20
75517;DHT22;64097;52.548;13.406;2023-04-01T05:23:36;15.80;69.20
75517;DHT22;64097;52.548;13.406;2023-04-01T05:26:12;15.80;69.40
75517;DHT22;64097;52.548;13.406;2023-04-01T05:28:38;15.80;69.40
75517;DHT22;64097;52.548;13.406;2023-04-01T05:31:05;15.80;69.40
75517;DHT22;64097;52.548;13.406;2023-04-01T05:33:31;15.90;69.30
75517;DHT22;64097;52.548;13.406;2023-04-01T05:36:06;15.90;69.30
75517;DHT22;64097;52.548;13.406;2023-04-01T05:38:31;15.90;69.10
75517;DHT22;64097;52.548;13.406;2023-04-01T05:41:02;16.00;69.00
75517;DHT22;64097;52.548;13.406;2023-04-01T05:43:28;16.00;69.10
75517;DHT22;64097;52.548;13.406;2023-04-01T05:45:55;16.00;68.70
75517;DHT22;64097;52.548;13.406;2023-04-01T05:48:21;16.00;68.50
75517;DHT22;64097;52.548;13.406;2023-04-01T05:50:46;16.00;68.30
75517;DHT22;64097;52.548;13.406;2023-04-01T05:53:12;16.00;68.40
75517;DHT22;64097;52.548;13.406;2023-04-01T05:55:38;16.00;68.30
75517;DHT22;64097;52.548;13.406;2023-04-01T05:58:03;15.90;68.20
75517;DHT22;64097;52.548;13.406;2023-04-01T06:00:29;15.90;68.30
75517;DHT22;64097;52.548;13.406;2023-04-01T06:02:58;15.90;68.10
75517;DHT22;64097;52.548;13.406;2023-04-01T06:05:27;15.90;68.10
75517;DHT22;64097;52.548;13.406;2023-04-01T06:07:59;15.90;68.20
75517;DHT22;64097;52.548;13.406;2023-04-01T06:16:31;15.90;68.20
75517;DHT22;64097;52.548;13.406;2023-04-01T06:19:22;16.00;68.20
75517;DHT22;64097;52.548;13.406;2023-04-01T06:40:29;16.10;68.50
75517;DHT22;64097;52.548;13.406;2023-04-01T06:46:17;16.10;68.50
75517;DHT22;64097;52.548;13.406;2023-04-01T06:48:48;16.10;68.30
75517;DHT22;64097;52.548;13.406;2023-04-01T06:54:06;16.10;68.20
75517;DHT22;64097;52.548;13.406;2023-04-01T06:56:37;16.10;68.50
75517;DHT22;64097;52.548;13.406;2023-04-01T06:59:12;16.10;68.50
75517;DHT22;64097;52.548;13.406;2023-04-01T07:02:13;16.10;68.60
75517;DHT22;64097;52.548;13.406;2023-04-01T07:04:46;16.00;68.80
75517;DHT22;64097;52.548;13.406;2023-04-01T07:07:21;16.00;68.80
75517;DHT22;64097;52.548;13.406;2023-04-01T07:09:52;16.00;69.00
75517;DHT22;64097;52.548;13.406;2023-04-01T07:14:56;16.00;69.40
75517;DHT22;64097;52.548;13.406;2023-04-01T07:17:28;16.10;69.50
75517;DHT22;64097;52.548;13.406;2023-04-01T07:20:20;16.10;69.50
75517;DHT22;64097;52.548;13.406;2023-04-01T07:22:49;16.10;69.40
75517;DHT22;64097;52.548;13.406;2023-04-01T07:25:36;16.10;68.90
75517;DHT22;64097;52.548;13.406;2023-04-01T07:28:14;16.10;69.00
75517;DHT22;64097;52.548;13.406;2023-04-01T07:31:25;16.10;69.30
75517;DHT22;64097;52.548;13.406;2023-04-01T07:36:52;16.10;69.10
75517;DHT22;64097;52.548;13.406;2023-04-01T07:45:23;16.10;69.40
75517;DHT22;64097;52.548;13.406;2023-04-01T07:48:03;16.00;69.40
75517;DHT22;64097;52.548;13.406;2023-04-01T07:50:37;16.00;69.50
75517;DHT22;64097;52.548;13.406;2023-04-01T07:53:16;15.90;69.70
75517;DHT22;64097;52.548;13.406;2023-04-01T07:56:05;15.90;70.00
75517;DHT22;64097;52.548;13.406;2023-04-01T08:07:14;16.00;70.40
75517;DHT22;64097;52.548;13.406;2023-04-01T08:09:48;15.90;69.70
75517;DHT22;64097;52.548;13.406;2023-04-01T08:15:26;15.80;70.00
75517;DHT22;64097;52.548;13.406;2023-04-01T08:18:19;15.80;70.40
75517;DHT22;64097;52.548;13.406;2023-04-01T08:20:56;15.70;70.70
75517;DHT22;64097;52.548;13.406;2023-04-01T08:26:02;15.70;71.00
75517;DHT22;64097;52.548;13.406;2023-04-01T08:28:48;15.60;71.70
75517;DHT22;64097;52.548;13.406;2023-04-01T08:31:30;15.50;72.40
75517;DHT22;64097;52.548;13.406;2023-04-01T08:33:57;15.50;73.40
75517;DHT22;64097;52.548;13.406;2023-04-01T08:36:34;15.30;74.20
75517;DHT22;64097;52.548;13.406;2023-04-01T08:39:12;15.30;74.50
75517;DHT22;64097;52.548;13.406;2023-04-01T08:45:18;15.20;75.40
75517;DHT22;64097;52.548;13.406;2023-04-01T08:48:01;15.20;75.10
75517;DHT22;64097;52.548;13.406;2023-04-01T08:56:14;15.20;74.70
75517;DHT22;64097;52.548;13.406;2023-04-01T09:04:59;15.20;73.60
75517;DHT22;64097;52.548;13.406;2023-04-01T09:07:59;15.20;73.80
75517;DHT22;64097;52.548;13.406;2023-04-01T09:14:09;15.30;73.80
75517;DHT22;64097;52.548;13.406;2023-04-01T09:23:01;15.40;72.60
75517;DHT22;64097;52.548;13.406;2023-04-01T09:29:02;15.40;72.30
75517;DHT22;64097;52.548;13.406;2023-04-01T09:37:35;15.50;71.50
75517;DHT22;64097;52.548;13.406;2023-04-01T09:40:17;15.50;71.60
75517;DHT22;64097;52.548;13.406;2023-04-01T10:27:21;15.30;70.90
75517;DHT22;64097;52.548;13.406;2023-04-01T10:30:13;15.20;70.90
75517;DHT22;64097;52.548;13.406;2023-04-01T10:35:44;15.00;71.20
75517;DHT22;64097;52.548;13.406;2023-04-01T10:55:06;14.80;72.30
75517;DHT22;64097;52.548;13.406;2023-04-01T11:22:14;15.00;70.20
75517;DHT22;64097;52.548;13.406;2023-04-01T11:27:58;14.90;69.40
75517;DHT22;64097;52.548;13.406;2023-04-01T11:33:26;14.80;70.00
75517;DHT22;64097;52.548;13.406;2023-04-01T11:42:01;14.70;69.10
75517;DHT22;64097;52.548;13.406;2023-04-01T11:44:30;14.70;69.90
75517;DHT22;64097;52.548;13.406;2023-04-01T11:47:04;14.70;69.70
75517;DHT22;64097;52.548;13.406;2023-04-01T11:52:28;14.70;69.70
75517;DHT22;64097;52.548;13.406;2023-04-01T12:19:53;14.60;69.30
75517;DHT22;64097;52.548;13.406;2023-04-01T12:22:40;14.60;69.10
75517;DHT22;64097;52.548;13.406;2023-04-01T12:25:52;14.50;70.40
75517;DHT22;64097;52.548;13.406;2023-04-01T12:28:37;14.60;69.20
75517;DHT22;64097;52.548;13.406;2023-04-01T12:34:27;14.50;68.60
75517;DHT22;64097;52.548;13.406;2023-04-01T12:42:41;14.30;68.90
75517;DHT22;64097;52.548;13.406;2023-04-01T12:45:32;14.20;69.40
75517;DHT22;64097;52.548;13.406;2023-04-01T12:56:00;13.90;70.10
75517;DHT22;64097;52.548;13.406;2023-04-01T12:58:42;13.90;70.10
75517;DHT22;64097;52.548;13.406;2023-04-01T13:01:44;13.80;70.60
75517;DHT22;64097;52.548;13.406;2023-04-01T13:09:50;13.90;70.60
75517;DHT22;64097;52.548;13.406;2023-04-01T13:20:43;14.00;69.90
75517;DHT22;64097;52.548;13.406;2023-04-01T13:23:13;13.90;70.00
75517;DHT22;64097;52.548;13.406;2023-04-01T13:28:30;14.00;69.30
75517;DHT22;64097;52.548;13.406;2023-04-01T13:36:58;13.90;69.10
75517;DHT22;64097;52.548;13.406;2023-04-01T13:44:30;13.90;69.10
